Time;durP1;ratioP1;P1;durP2;ratioP2;P2;SDS_P1;SDS_P2;PMS_P1;PMS_P2;Temp;Humidity;BMP_temperature;BMP_pressure;BME280_temperature;BME280_humidity;BME280_pressure;Samples;Min_cycle;Max_cycle;Signal;HPM_P1;HPM_P2
2023/09/26 00:00:08;;;;;;;3.75;3.17;;;;;;;22.47;48.71;102290.81;5075854;28;20720;-66
2023/09/26 00:02:35;;;;;;;4.10;3.10;;;;;;;22.53;48.65;102299.94;5073901;28;20055;-65
2023/09/26 00:05:03;;;;;;;3.35;3.00;;;;;;;22.53;48.99;102295.47;5076911;28;20619;-66
2023/09/26 00:07:29;;;;;;;3.65;3.13;;;;;;;22.53;48.66;102297.28;5072712;28;20040;-66
2023/09/26 00:09:55;;;;;;;3.63;3.28;;;;;;;22.51;48.72;102297.44;5079587;28;20532;-66
2023/09/26 00:12:21;;;;;;;3.65;3.17;;;;;;;22.51;48.83;102301.94;5075602;28;20059;-65
2023/09/26 00:14:47;;;;;;;3.67;3.28;;;;;;;22.51;48.63;102299.28;5077298;28;20040;-65
2023/09/26 00:17:12;;;;;;;3.72;3.17;;;;;;;22.53;48.98;102303.44;5078706;28;20036;-66
2023/09/26 00:19:38;;;;;;;4.15;3.75;;;;;;;22.53;48.62;102311.38;5074606;28;20433;-66
2023/09/26 00:22:03;;;;;;;3.53;3.22;;;;;;;22.49;49.13;102315.38;5075089;28;20043;-66
2023/09/26 00:24:29;;;;;;;4.95;3.80;;;;;;;22.51;48.90;102317.84;5076146;28;20040;-67
2023/09/26 00:26:54;;;;;;;3.88;3.45;;;;;;;22.52;48.67;102311.56;5071262;28;20052;-66
2023/09/26 00:29:20;;;;;;;3.72;2.65;;;;;;;22.52;48.92;102312.38;5071959;28;20038;-66
2023/09/26 00:31:45;;;;;;;3.60;3.10;;;;;;;22.50;48.82;102306.41;5075976;28;20056;-66
2023/09/26 00:34:12;;;;;;;4.25;3.03;;;;;;;22.49;48.75;102309.22;5070107;28;20032;-66
2023/09/26 00:36:37;;;;;;;5.05;3.45;;;;;;;22.48;48.86;102299.59;5076639;28;20058;-66
2023/09/26 00:39:03;;;;;;;4.13;3.20;;;;;;;22.47;48.86;102297.94;5073113;28;20118;-66
2023/09/26 00:41:28;;;;;;;4.30;2.60;;;;;;;22.50;48.90;102301.09;5074775;28;20036;-66
2023/09/26 00:43:54;;;;;;;3.80;3.00;;;;;;;22.46;49.15;102296.28;5075072;28;20521;-66
2023/09/26 00:46:19;;;;;;;3.63;2.80;;;;;;;22.47;48.85;102289.97;5075774;28;20044;-66
2023/09/26 00:48:45;;;;;;;3.33;2.90;;;;;;;22.50;48.90;102293.13;5071535;28;20053;-66
2023/09/26 00:51:10;;;;;;;3.72;3.10;;;;;;;22.40;49.02;102281.81;5073780;28;20044;-65
2023/09/26 00:53:40;;;;;;;4.32;3.28;;;;;;;22.46;48.90;102288.31;5070192;28;20048;-66
2023/09/26 00:56:06;;;;;;;;;;;;;;;22.46;49.01;102293.63;5077336;28;20450;-66
2023/09/26 00:58:33;;;;;;;3.20;2.90;;;;;;;22.46;49.10;102288.31;5052136;28;20282;-67
2023/09/26 01:00:59;;;;;;;4.10;3.28;;;;;;;22.43;48.85;102278.00;5076166;28;20037;-66
2023/09/26 01:03:25;;;;;;;4.35;3.92;;;;;;;22.49;48.77;102290.66;5073442;28;20043;-66
2023/09/26 01:05:50;;;;;;;4.43;3.65;;;;;;;22.48;49.00;102296.94;5072751;28;20044;-65
2023/09/26 01:08:18;;;;;;;4.25;3.13;;;;;;;22.44;48.99;102298.25;5091617;28;20050;-67
2023/09/26 01:10:44;;;;;;;3.75;3.17;;;;;;;22.45;48.90;102292.81;5074936;28;20040;-67
2023/09/26 01:13:10;;;;;;;3.45;2.97;;;;;;;22.45;48.86;102292.81;5073951;28;20036;-66
2023/09/26 01:15:40;;;;;;;3.58;3.28;;;;;;;22.48;49.17;102295.13;5077994;28;20040;-66
2023/09/26 01:18:16;;;;;;;3.95;3.13;;;;;;;22.44;48.88;102301.75;5077255;28;20043;-67
2023/09/26 01:20:44;;;;;;;3.00;2.67;;;;;;;22.44;48.93;102288.47;5078764;28;20028;-66
2023/09/26 01:23:12;;;;;;;4.18;3.13;;;;;;;22.42;49.17;102282.47;5076284;28;20028;-67
2023/09/26 01:25:37;;;;;;;4.07;2.70;;;;;;;22.47;48.77;102276.72;5090857;28;20036;-67
2023/09/26 01:28:08;;;;;;;3.40;2.95;;;;;;;22.45;48.96;102279.53;5076396;28;20060;-67
2023/09/26 01:30:34;;;;;;;3.20;2.90;;;;;;;22.46;48.94;102265.25;5077369;28;20535;-67
2023/09/26 01:33:04;;;;;;;3.42;3.13;;;;;;;22.46;48.72;102267.91;5077762;28;20447;-66
2023/09/26 01:35:30;;;;;;;3.38;2.90;;;;;;;22.41;48.98;102253.44;5079041;28;20066;-66
2023/09/26 01:37:56;;;;;;;3.30;2.95;;;;;;;22.45;48.86;102255.63;5075915;28;20028;-66
2023/09/26 01:40:22;;;;;;;3.80;3.42;;;;;;;22.44;49.07;102266.38;5072047;28;20517;-66
2023/09/26 01:42:48;;;;;;;3.67;3.15;;;;;;;22.46;49.03;102267.09;5061917;28;20039;-66
2023/09/26 01:45:14;;;;;;;2.85;2.55;;;;;;;22.44;48.86;102267.25;5072786;28;20037;-65
2023/09/26 01:47:43;;;;;;;3.85;3.20;;;;;;;22.44;49.11;102274.34;5078231;28;20562;-65
2023/09/26 01:50:09;;;;;;;3.88;3.22;;;;;;;22.42;48.90;102271.03;5073884;28;20046;-66
2023/09/26 01:52:35;;;;;;;4.05;2.83;;;;;;;22.45;49.00;102279.53;5075222;28;20040;-66
2023/09/26 01:55:06;;;;;;;4.55;2.97;;;;;;;22.43;48.74;102276.19;5089791;28;20067;-67
2023/09/26 01:57:34;;;;;;;3.25;2.83;;;;;;;22.42;49.19;102274.50;5077512;28;20040;-65
2023/09/26 02:00:05;;;;;;;3.08;2.58;;;;;;;22.44;48.87;102275.22;5080030;28;20040;-65
2023/09/26 02:02:42;;;;;;;3.78;2.90;;;;;;;22.43;48.90;102273.53;5075371;28;20047;-65
2023/09/26 02:05:10;;;;;;;3.25;2.83;;;;;;;22.42;49.14;102271.88;5084608;28;20044;-65
2023/09/26 02:07:36;;;;;;;3.10;2.80;;;;;;;22.43;49.10;102276.19;5072741;28;20149;-66
2023/09/26 02:10:05;;;;;;;4.07;2.78;;;;;;;22.43;48.82;102278.00;5077411;28;20039;-65
2023/09/26 02:12:32;;;;;;;4.05;2.60;;;;;;;22.45;48.86;102271.56;5079273;28;20032;-66
2023/09/26 02:14:58;;;;;;;4.50;2.65;;;;;;;22.45;48.82;102270.72;5078415;28;20028;-66
2023/09/26 02:17:23;;;;;;;3.33;2.70;;;;;;;22.44;48.83;102274.34;5080005;28;20571;-66
2023/09/26 02:19:49;;;;;;;3.35;2.90;;;;;;;22.43;49.22;102272.69;5079367;28;20039;-66
2023/09/26 02:22:14;;;;;;;3.40;2.83;;;;;;;22.42;49.18;102271.88;5088676;28;20724;-65
2023/09/26 02:24:40;;;;;;;3.10;2.80;;;;;;;22.41;49.17;102274.69;5079599;28;20044;-65
2023/09/26 02:27:06;;;;;;;3.65;3.22;;;;;;;22.43;48.85;102275.34;5073983;28;20040;-64
2023/09/26 02:29:31;;;;;;;3.30;2.67;;;;;;;22.41;49.03;102270.19;5077498;28;20046;-65
2023/09/26 02:31:57;;;;;;;3.08;2.75;;;;;;;22.43;49.12;102276.19;5076958;28;20048;-64
2023/09/26 02:34:22;;;;;;;5.80;3.20;;;;;;;22.39;49.16;102261.56;5076908;28;20039;-65
2023/09/26 02:36:49;;;;;;;3.38;2.72;;;;;;;22.43;48.72;102265.56;5073331;28;20043;-64
2023/09/26 02:39:15;;;;;;;3.95;3.22;;;;;;;22.38;49.05;102257.25;5078992;28;20118;-64
2023/09/26 02:41:40;;;;;;;3.80;3.30;;;;;;;22.39;48.85;102256.28;5074282;28;20034;-65
2023/09/26 02:44:06;;;;;;;4.43;3.05;;;;;;;22.40;49.13;102259.75;5076517;28;20101;-64
2023/09/26 02:46:33;;;;;;;4.10;3.25;;;;;;;22.41;49.26;102262.25;5076590;28;20055;-65
2023/09/26 02:49:00;;;;;;;3.85;3.13;;;;;;;22.39;49.06;102252.78;5091542;28;20093;-65
2023/09/26 02:51:28;;;;;;;4.13;3.17;;;;;;;22.39;49.08;102255.44;5075367;28;20044;-65
2023/09/26 02:53:54;;;;;;;4.32;2.88;;;;;;;22.40;49.17;102254.44;5068855;28;20098;-64
2023/09/26 02:56:19;;;;;;;3.70;2.92;;;;;;;22.39;49.00;102258.91;5073422;28;20448;-65
2023/09/26 02:58:45;;;;;;;5.40;3.22;;;;;;;22.36;48.96;102251.28;5073824;28;20036;-65
2023/09/26 03:01:15;;;;;;;3.55;3.05;;;;;;;22.39;48.83;102248.31;5073631;28;20440;-65
2023/09/26 03:03:41;;;;;;;6.03;3.15;;;;;;;22.37;49.11;102246.81;5074761;28;20079;-65
2023/09/26 03:06:06;;;;;;;3.92;2.80;;;;;;;22.38;49.23;102248.47;5076618;28;20075;-65
2023/09/26 03:08:33;;;;;;;3.28;2.95;;;;;;;22.41;49.13;102240.19;5075222;28;20033;-65
2023/09/26 03:10:59;;;;;;;3.35;2.97;;;;;;;22.37;48.94;102242.34;5073537;28;20040;-64
2023/09/26 03:13:25;;;;;;;4.60;3.10;;;;;;;22.33;49.12;102238.34;5072437;28;20039;-64
2023/09/26 03:15:56;;;;;;;3.15;2.83;;;;;;;22.37;48.95;102244.16;5073094;28;20048;-64
2023/09/26 03:18:22;;;;;;;3.90;2.95;;;;;;;22.37;48.96;102242.34;5072015;28;20618;-64
2023/09/26 03:20:48;;;;;;;3.15;2.88;;;;;;;22.24;49.17;102224.22;5073538;28;20039;-65
2023/09/26 03:23:13;;;;;;;3.42;3.03;;;;;;;22.35;48.98;102232.88;5077526;28;20081;-65
2023/09/26 03:25:39;;;;;;;3.80;3.08;;;;;;;22.36;49.09;102230.06;5073163;28;20031;-64
2023/09/26 03:28:05;;;;;;;4.53;3.00;;;;;;;22.31;49.35;102221.75;5068516;28;20640;-65
2023/09/26 03:30:30;;;;;;;4.70;3.20;;;;;;;22.34;49.11;102223.25;5075571;28;20155;-65
2023/09/26 03:32:56;;;;;;;4.72;3.55;;;;;;;22.35;48.83;102223.09;5072216;28;20051;-64
2023/09/26 03:35:22;;;;;;;4.00;3.25;;;;;;;22.35;49.33;102217.78;5076806;28;20101;-64
2023/09/26 03:37:47;;;;;;;4.85;3.28;;;;;;;22.30;49.14;102215.63;5075687;28;20036;-65
2023/09/26 03:40:13;;;;;;;3.30;2.95;;;;;;;22.34;49.10;102220.59;5068371;28;20497;-64
2023/09/26 03:42:38;;;;;;;3.35;3.00;;;;;;;22.33;48.85;102221.59;5076557;28;20051;-65
2023/09/26 03:45:06;;;;;;;3.47;3.03;;;;;;;22.30;49.16;102212.13;5075668;28;20063;-66
2023/09/26 03:47:32;;;;;;;4.90;3.30;;;;;;;22.31;49.02;102209.31;5075273;28;20044;-65
2023/09/26 03:49:58;;;;;;;3.22;2.92;;;;;;;22.32;48.90;102220.78;5077167;28;20101;-66
2023/09/26 03:52:23;;;;;;;4.78;3.35;;;;;;;22.30;49.15;102212.13;5075401;28;20074;-64
2023/09/26 03:54:49;;;;;;;3.80;3.22;;;;;;;22.33;48.91;102210.97;5071433;28;20123;-64
2023/09/26 03:57:15;;;;;;;3.95;2.97;;;;;;;22.30;49.11;102210.31;5078346;28;20028;-65
2023/09/26 03:59:40;;;;;;;3.13;2.83;;;;;;;22.29;49.32;102202.53;5075097;28;20035;-64
2023/09/26 04:02:06;;;;;;;3.30;2.78;;;;;;;22.27;49.10;102204.50;5072654;28;20059;-65
2023/09/26 04:04:31;;;;;;;4.07;3.10;;;;;;;22.30;48.88;102201.53;5075955;28;20032;-64
2023/09/26 04:06:58;;;;;;;3.72;2.97;;;;;;;22.30;49.20;102207.66;5070419;28;20043;-65
2023/09/26 04:09:24;;;;;;;3.72;3.05;;;;;;;22.30;48.94;102209.50;5070753;28;20040;-65
2023/09/26 04:11:49;;;;;;;3.92;3.45;;;;;;;22.29;48.90;102207.81;5074481;28;20720;-65
2023/09/26 04:14:14;;;;;;;3.53;3.05;;;;;;;22.25;49.11;102202.00;5077672;28;20740;-65
2023/09/26 04:16:40;;;;;;;4.57;3.42;;;;;;;22.27;49.21;102204.50;5075469;28;20063;-65
2023/09/26 04:19:05;;;;;;;3.53;3.03;;;;;;;22.30;48.77;102206.84;5075841;28;20032;-65
2023/09/26 04:21:31;;;;;;;3.30;2.95;;;;;;;22.28;49.07;102200.88;5076913;28;20043;-64
2023/09/26 04:23:59;;;;;;;4.25;3.08;;;;;;;22.27;48.99;102207.16;5072237;28;20020;-65
2023/09/26 04:26:27;;;;;;;4.72;3.65;;;;;;;22.28;48.83;102206.16;5078234;28;20617;-65
2023/09/26 04:28:53;;;;;;;4.60;3.20;;;;;;;22.28;48.90;102209.66;5074220;28;20491;-65
2023/09/26 04:31:19;;;;;;;5.57;3.15;;;;;;;22.26;48.85;102201.03;5072246;28;20053;-65
2023/09/26 04:33:46;;;;;;;4.35;3.33;;;;;;;22.23;48.80;102190.72;5078988;28;20051;-65
2023/09/26 04:36:12;;;;;;;4.03;3.00;;;;;;;22.27;48.76;102193.91;5073829;28;20114;-64
2023/09/26 04:38:37;;;;;;;3.67;3.05;;;;;;;22.25;48.88;102193.19;5077137;28;20040;-65
2023/09/26 04:41:04;;;;;;;3.35;3.05;;;;;;;22.26;49.10;102192.22;5073557;28;20040;-64
2023/09/26 04:43:31;;;;;;;4.35;3.42;;;;;;;22.23;49.05;102195.19;5075369;28;20043;-65
2023/09/26 04:45:56;;;;;;;3.30;2.75;;;;;;;22.23;49.01;102203.97;5078646;28;20040;-64
2023/09/26 04:48:22;;;;;;;4.40;3.53;;;;;;;22.24;48.82;102199.50;5076287;28;20463;-64
2023/09/26 04:50:48;;;;;;;3.92;2.90;;;;;;;22.25;48.66;102195.84;5078716;28;20036;-65
2023/09/26 04:53:14;;;;;;;3.95;3.15;;;;;;;22.23;48.68;102196.03;5069901;28;20478;-65
2023/09/26 04:55:41;;;;;;;4.28;3.35;;;;;;;22.23;49.08;102198.69;5076999;28;20039;-64
2023/09/26 04:58:06;;;;;;;3.95;3.28;;;;;;;22.22;48.68;102191.72;5079945;28;20040;-64
2023/09/26 05:00:32;;;;;;;4.72;3.40;;;;;;;22.18;49.03;102189.56;5076148;28;20039;-64
2023/09/26 05:02:58;;;;;;;3.53;2.95;;;;;;;22.21;48.81;102194.53;5081750;28;20039;-65
2023/09/26 05:05:24;;;;;;;3.55;2.80;;;;;;;22.21;48.91;102195.34;5075519;28;20406;-65
2023/09/26 05:07:50;;;;;;;3.55;3.13;;;;;;;22.22;48.99;102201.50;5077812;28;20042;-65
2023/09/26 05:10:16;;;;;;;4.03;3.20;;;;;;;22.23;48.64;102196.03;5074238;28;20607;-65
2023/09/26 05:12:42;;;;;;;4.43;3.28;;;;;;;22.21;48.54;102199.84;5080897;28;20090;-65
2023/09/26 05:15:12;;;;;;;4.43;3.20;;;;;;;22.20;48.85;102206.97;5077799;28;20830;-65
2023/09/26 05:17:38;;;;;;;;;;;;;;;22.19;48.70;102205.31;5075101;28;20046;-64
2023/09/26 05:20:07;;;;;;;3.50;3.20;;;;;;;22.19;48.69;102210.63;5077111;28;20380;-66
2023/09/26 05:22:32;;;;;;;4.18;3.47;;;;;;;22.19;48.54;102204.47;5078857;28;20045;-66
2023/09/26 05:24:58;;;;;;;4.43;2.80;;;;;;;22.19;48.93;102189.38;5079304;28;20273;-66
2023/09/26 05:27:23;;;;;;;3.42;2.97;;;;;;;22.19;48.53;102185.91;5075790;28;20052;-65
2023/09/26 05:29:49;;;;;;;5.18;3.00;;;;;;;22.18;48.54;102190.38;5073879;28;20153;-64
2023/09/26 05:32:14;;;;;;;3.28;2.97;;;;;;;22.19;48.66;102193.88;5080773;28;20059;-64
2023/09/26 05:34:40;;;;;;;4.25;3.20;;;;;;;22.16;48.49;102202.97;5073842;28;20040;-65
2023/09/26 05:37:05;;;;;;;3.70;3.08;;;;;;;22.18;48.61;102200.16;5082281;28;20040;-65
2023/09/26 05:39:31;;;;;;;3.60;2.83;;;;;;;22.19;48.77;102194.69;5074466;28;20044;-65
2023/09/26 05:41:56;;;;;;;3.30;2.90;;;;;;;22.19;48.53;102197.34;5078777;28;20592;-64
2023/09/26 05:44:22;;;;;;;4.35;3.47;;;;;;;22.16;48.79;102194.19;5075687;28;20043;-64
2023/09/26 05:46:48;;;;;;;3.90;3.35;;;;;;;22.15;48.83;102189.88;5076528;28;20040;-65
2023/09/26 05:49:13;;;;;;;3.80;3.20;;;;;;;22.15;48.85;102185.41;5077675;28;20067;-64
2023/09/26 05:51:39;;;;;;;3.25;2.95;;;;;;;22.14;48.70;102186.41;5075885;28;20040;-64
2023/09/26 05:54:05;;;;;;;4.00;3.15;;;;;;;22.17;48.37;102186.06;5077321;28;20761;-65
2023/09/26 05:56:30;;;;;;;4.65;3.25;;;;;;;22.16;48.58;102184.41;5080716;28;20047;-64
2023/09/26 05:58:56;;;;;;;3.88;3.17;;;;;;;22.16;48.64;102192.38;5078540;28;20711;-64
2023/09/26 06:01:21;;;;;;;3.88;3.05;;;;;;;22.13;48.33;102199.81;5077764;28;20054;-64
2023/09/26 06:03:47;;;;;;;3.33;2.97;;;;;;;22.15;48.86;102198.66;5082222;28;20040;-65
2023/09/26 06:06:12;;;;;;;3.47;3.17;;;;;;;22.15;48.48;102196.00;5081186;28;20040;-64
2023/09/26 06:08:38;;;;;;;3.58;3.15;;;;;;;22.13;48.54;102205.13;5076240;28;20051;-64
2023/09/26 06:11:04;;;;;;;4.82;3.13;;;;;;;22.15;48.46;102205.81;5083359;28;20036;-64
2023/09/26 06:13:31;;;;;;;3.88;3.38;;;;;;;22.12;48.60;102204.31;5076734;28;20123;-64
2023/09/26 06:15:56;;;;;;;5.63;3.72;;;;;;;22.12;48.71;102200.81;5098065;28;20402;-65
2023/09/26 06:18:22;;;;;;;6.32;3.28;;;;;;;22.13;48.82;102207.78;5077522;28;20036;-64
2023/09/26 06:20:47;;;;;;;3.78;3.17;;;;;;;22.12;48.41;102196.34;5073111;28;20135;-65
2023/09/26 06:23:13;;;;;;;3.33;2.78;;;;;;;22.13;48.38;102200.66;5074741;28;20391;-64
2023/09/26 06:25:38;;;;;;;3.38;2.97;;;;;;;22.11;48.40;102196.50;5077566;28;20043;-64
2023/09/26 06:28:04;;;;;;;5.32;3.45;;;;;;;22.13;48.80;102198.00;5072336;28;20047;-65
2023/09/26 06:30:30;;;;;;;3.97;3.13;;;;;;;22.07;48.68;102198.63;5077222;28;20458;-67
2023/09/26 06:32:55;;;;;;;3.78;3.28;;;;;;;22.10;48.69;102201.00;5081222;28;20035;-66
2023/09/26 06:35:21;;;;;;;4.25;3.58;;;;;;;22.11;48.29;102196.50;5077164;28;20059;-66
2023/09/26 06:37:46;;;;;;;3.50;3.10;;;;;;;22.12;48.19;102200.81;5073735;28;20083;-66
2023/09/26 06:40:12;;;;;;;3.60;2.97;;;;;;;22.12;48.30;102204.31;5076982;28;20043;-66
2023/09/26 06:42:37;;;;;;;3.90;3.30;;;;;;;22.13;48.19;102208.63;5078417;28;20116;-65
2023/09/26 06:45:03;;;;;;;5.45;3.28;;;;;;;22.15;48.66;102208.44;5077707;28;20599;-65
2023/09/26 06:47:29;;;;;;;4.85;3.70;;;;;;;22.12;48.23;102209.59;5075580;28;20051;-66
2023/09/26 06:49:55;;;;;;;4.22;3.20;;;;;;;22.13;48.27;102210.44;5077181;28;20769;-66
2023/09/26 06:52:24;;;;;;;4.65;3.28;;;;;;;22.11;48.51;102212.44;5072310;28;20051;-66
2023/09/26 06:54:50;;;;;;;4.88;3.22;;;;;;;22.14;48.27;102212.94;5073375;28;20037;-67
2023/09/26 06:57:20;;;;;;;4.45;3.15;;;;;;;22.13;48.30;102221.88;5075397;28;20684;-66
2023/09/26 06:59:51;;;;;;;3.20;2.90;;;;;;;22.11;48.75;102215.91;5070888;28;20051;-65
2023/09/26 07:02:17;;;;;;;3.60;2.83;;;;;;;22.13;48.43;102221.06;5074254;28;20101;-65
2023/09/26 07:04:43;;;;;;;3.58;3.17;;;;;;;22.11;48.45;102229.19;5072779;28;20044;-66
2023/09/26 07:07:09;;;;;;;3.42;3.13;;;;;;;22.16;48.28;102226.03;5070275;28;20490;-66
2023/09/26 07:09:35;;;;;;;4.85;2.85;;;;;;;22.16;48.53;102218.06;5077377;28;20040;-66
2023/09/26 07:12:00;;;;;;;3.40;3.10;;;;;;;22.18;48.26;102224.03;5073723;28;20048;-66
2023/09/26 07:14:32;;;;;;;3.58;3.20;;;;;;;22.12;48.45;102208.78;5074624;28;20037;-65
2023/09/26 07:16:57;;;;;;;3.60;3.22;;;;;;;22.07;48.48;102203.09;5072825;28;20059;-66
2023/09/26 07:19:23;;;;;;;4.05;2.97;;;;;;;22.13;48.36;102211.28;5076941;28;20039;-65
2023/09/26 07:21:49;;;;;;;5.13;3.45;;;;;;;22.12;48.20;102209.59;5078001;28;20933;-66
2023/09/26 07:24:14;;;;;;;3.13;2.80;;;;;;;22.16;48.34;102205.63;5072222;28;20036;-65
2023/09/26 07:26:40;;;;;;;3.83;3.40;;;;;;;22.13;48.20;102202.47;5070632;28;20798;-65
2023/09/26 07:29:08;;;;;;;3.67;2.90;;;;;;;22.14;48.30;102210.28;5076634;28;20286;-65
2023/09/26 07:31:35;;;;;;;3.50;2.88;;;;;;;22.19;48.21;102207.13;5076157;28;20051;-66
2023/09/26 07:34:00;;;;;;;3.78;3.30;;;;;;;22.17;48.53;102202.00;5079903;28;20043;-66
2023/09/26 07:36:26;;;;;;;3.92;3.45;;;;;;;22.17;48.30;102194.03;5071692;28;20036;-66
2023/09/26 07:38:51;;;;;;;3.63;3.20;;;;;;;22.19;48.59;102196.50;5075181;28;20041;-68
2023/09/26 07:41:17;;;;;;;6.20;4.40;;;;;;;22.39;48.09;102189.09;5070719;28;20043;-69
2023/09/26 07:43:42;;;;;;;10.30;8.68;;;;;;;22.51;47.97;102180.66;5074217;28;20096;-67
2023/09/26 07:46:09;;;;;;;14.10;12.80;;;;;;;22.59;47.26;102180.63;5071122;28;20039;-67
2023/09/26 07:48:37;;;;;;;22.55;16.35;;;;;;;22.63;47.08;102183.00;5076189;28;20584;-67
2023/09/26 07:51:04;;;;;;;41.00;32.17;;;;;;;22.65;47.38;102191.63;5074811;28;20044;-68
2023/09/26 07:53:29;;;;;;;45.88;35.22;;;;;;;22.65;47.15;102199.59;5071449;28;20052;-67
2023/09/26 07:55:58;;;;;;;28.85;17.30;;;;;;;22.65;47.12;102197.75;5078307;28;20032;-67
2023/09/26 07:58:24;;;;;;;6.97;4.47;;;;;;;22.68;47.24;102204.56;5079060;28;20036;-67
2023/09/26 08:00:52;;;;;;;6.97;5.25;;;;;;;22.69;47.06;102203.56;5077214;28;21054;-67
2023/09/26 08:03:17;;;;;;;8.35;5.55;;;;;;;22.70;47.22;102200.75;5076494;28;20082;-66
2023/09/26 08:05:43;;;;;;;8.05;6.88;;;;;;;22.69;47.12;102193.75;5079406;28;20036;-67
2023/09/26 08:08:08;;;;;;;7.68;5.30;;;;;;;22.71;47.07;102183.81;5073319;28;20379;-67
2023/09/26 08:10:38;;;;;;;5.38;3.70;;;;;;;22.70;46.97;102178.66;5074528;28;20044;-67
2023/09/26 08:13:05;;;;;;;8.10;5.93;;;;;;;22.69;47.01;102179.66;5073044;28;20063;-67
2023/09/26 08:15:31;;;;;;;6.93;5.88;;;;;;;22.69;47.39;102183.16;5072929;28;20044;-67
2023/09/26 08:17:57;;;;;;;47.33;33.08;;;;;;;22.72;47.67;102193.44;5072187;28;20044;-67
2023/09/26 08:20:26;;;;;;;10.20;8.18;;;;;;;22.72;47.48;102192.59;5079389;28;20047;-67
2023/09/26 08:22:52;;;;;;;4.13;3.22;;;;;;;22.71;47.65;102190.94;5080575;28;20694;-67
2023/09/26 08:25:17;;;;;;;4.22;3.65;;;;;;;22.71;47.64;102193.59;5077255;28;20033;-67
2023/09/26 08:27:43;;;;;;;6.13;4.70;;;;;;;22.72;47.65;102192.59;5079746;28;20048;-67
2023/09/26 08:30:11;;;;;;;5.45;3.80;;;;;;;22.71;47.67;102189.13;5078957;28;20036;-67
2023/09/26 08:32:38;;;;;;;5.85;5.25;;;;;;;22.73;47.84;102183.63;5073911;28;20112;-67
2023/09/26 08:35:07;;;;;;;6.57;4.75;;;;;;;22.72;47.58;102180.16;5077387;28;20036;-69
2023/09/26 08:37:34;;;;;;;11.52;9.43;;;;;;;22.73;47.87;102184.47;5077200;28;20024;-68
2023/09/26 08:40:00;;;;;;;10.45;9.00;;;;;;;22.72;47.49;102176.66;5074824;28;20137;-68
2023/09/26 08:42:28;;;;;;;8.18;7.03;;;;;;;22.75;47.87;102166.53;5072958;28;20049;-72
2023/09/26 08:44:55;;;;;;;7.45;5.50;;;;;;;22.89;47.21;102179.19;5073890;28;20111;-71
2023/09/26 08:47:24;;;;;;;8.25;7.00;;;;;;;23.00;47.13;102178.03;5075708;28;20052;-73
2023/09/26 08:49:54;;;;;;;22.42;15.07;;;;;;;22.81;47.66;102176.50;5075356;28;20705;-70
2023/09/26 08:52:21;;;;;;;27.20;17.77;;;;;;;22.88;47.33;102187.31;5083352;28;20036;-69
2023/09/26 08:54:47;;;;;;;44.83;32.92;;;;;;;22.91;47.17;102186.97;5079716;28;20584;-69
2023/09/26 08:57:13;;;;;;;45.58;36.58;;;;;;;22.92;47.35;102189.47;5083336;28;20031;-69
2023/09/26 08:59:42;;;;;;;31.25;23.90;;;;;;;22.94;47.12;102188.47;5079129;28;20044;-68
2023/09/26 09:02:11;;;;;;;15.60;10.63;;;;;;;22.97;47.23;102193.44;5081579;28;20040;-68
2023/09/26 09:04:40;;;;;;;74.20;51.22;;;;;;;22.98;47.30;102190.66;5077530;28;20063;-70
2023/09/26 09:07:06;;;;;;;107.22;60.70;;;;;;;22.98;46.93;102188.00;5077773;28;20032;-69
2023/09/26 09:09:34;;;;;;;7.13;5.45;;;;;;;23.02;47.19;102183.16;5083984;28;20039;-68
2023/09/26 09:12:00;;;;;;;36.20;30.30;;;;;;;23.04;47.27;102170.53;5074829;28;20747;-69
2023/09/26 09:14:34;;;;;;;6.60;5.22;;;;;;;23.07;47.08;102168.38;5079593;28;20036;-68
2023/09/26 09:16:59;;;;;;;5.68;4.80;;;;;;;23.08;46.82;102163.88;5074484;28;20040;-69
2023/09/26 09:19:45;;;;;;;5.00;4.47;;;;;;;23.06;46.99;102156.06;5077885;28;20023;-68
2023/09/26 09:22:18;;;;;;;5.00;4.15;;;;;;;23.06;46.90;102150.75;5071611;28;20040;-68
2023/09/26 09:24:52;;;;;;;4.50;3.60;;;;;;;23.09;46.93;102149.59;5090564;28;20040;-68
2023/09/26 09:27:29;;;;;;;6.30;5.40;;;;;;;23.16;46.82;102139.94;5075201;28;20063;-68
2023/09/26 09:30:18;;;;;;;7.57;6.07;;;;;;;23.15;46.83;102141.75;5072281;28;20067;-68
2023/09/26 09:32:45;;;;;;;13.88;12.13;;;;;;;23.12;46.85;102135.97;5076745;28;20512;-68
2023/09/26 09:35:13;;;;;;;4.95;4.05;;;;;;;23.07;46.98;102128.50;5078985;28;20035;-68
2023/09/26 09:37:47;;;;;;;35.10;31.83;;;;;;;23.14;46.99;102136.63;5078863;28;20494;-69
2023/09/26 09:40:17;;;;;;;39.53;35.70;;;;;;;23.18;46.89;102143.28;5071242;28;20059;-69
2023/09/26 09:42:43;;;;;;;58.28;36.95;;;;;;;23.19;46.59;102143.09;5074014;28;20063;-69
2023/09/26 09:45:09;;;;;;;43.50;30.23;;;;;;;23.22;46.74;102139.28;5073452;28;20036;-70
2023/09/26 09:47:37;;;;;;;174.23;100.57;;;;;;;23.22;46.71;102141.94;5077125;28;20048;-68
2023/09/26 09:50:05;;;;;;;13.30;11.55;;;;;;;23.21;46.99;102140.28;5078401;28;20072;-69
2023/09/26 09:52:33;;;;;;;9.88;8.50;;;;;;;23.26;46.78;102129.94;5073840;28;20032;-69
2023/09/26 09:55:08;;;;;;;9.50;7.43;;;;;;;23.24;46.79;102134.63;5075710;28;20097;-70
2023/09/26 09:57:38;;;;;;;6.00;5.18;;;;;;;23.24;46.70;102131.97;5079885;28;20043;-70
2023/09/26 10:00:08;;;;;;;4.43;3.88;;;;;;;23.26;46.63;102139.75;5079390;28;20032;-69
2023/09/26 10:02:35;;;;;;;8.05;5.35;;;;;;;23.26;46.59;102129.94;5073013;28;20044;-71
2023/09/26 10:05:05;;;;;;;4.20;3.65;;;;;;;23.27;46.54;102128.94;5075922;28;20039;-70
2023/09/26 10:07:32;;;;;;;5.78;4.50;;;;;;;23.27;46.65;102123.63;5076788;28;20036;-71
2023/09/26 10:09:58;;;;;;;6.88;5.55;;;;;;;23.28;46.57;102122.63;5072442;28;20525;-70
2023/09/26 10:12:25;;;;;;;3.17;2.88;;;;;;;23.32;46.66;102128.44;5072802;28;20074;-73
2023/09/26 10:14:50;;;;;;;2.58;2.00;;;;;;;23.34;46.76;102134.41;5072457;28;20113;-73
2023/09/26 10:17:17;;;;;;;2.38;2.08;;;;;;;23.32;46.43;102125.78;5072815;28;21157;-72
2023/09/26 10:19:43;;;;;;;3.47;2.42;;;;;;;23.33;46.63;102124.78;5077557;28;20398;-72
2023/09/26 10:22:21;;;;;;;3.45;2.70;;;;;;;23.33;46.71;102119.44;5073431;28;20032;-73
2023/09/26 10:24:51;;;;;;;3.20;2.28;;;;;;;23.29;46.74;102120.81;5079901;28;20475;-72
2023/09/26 10:27:31;;;;;;;2.58;2.20;;;;;;;23.35;46.53;102117.47;5078636;28;20113;-70
2023/09/26 10:29:58;;;;;;;2.78;2.33;;;;;;;23.34;46.79;102110.47;5072862;28;20036;-70
2023/09/26 10:32:35;;;;;;;4.30;2.50;;;;;;;23.32;46.59;102099.19;5071363;28;20057;-70
2023/09/26 10:35:23;;;;;;;2.95;2.42;;;;;;;23.26;46.41;102078.63;5089747;28;20105;-69
2023/09/26 10:38:06;;;;;;;2.88;2.33;;;;;;;23.33;46.47;102093.69;5075604;28;20038;-69
2023/09/26 10:40:31;;;;;;;3.30;2.13;;;;;;;23.34;46.59;102094.53;5073666;28;20085;-69
2023/09/26 10:42:59;;;;;;;2.42;2.10;;;;;;;23.33;46.80;102090.22;5072199;28;20923;-70
2023/09/26 10:45:24;;;;;;;3.90;2.45;;;;;;;23.44;46.50;102093.34;5075661;28;20038;-69
2023/09/26 10:47:50;;;;;;;2.97;2.40;;;;;;;23.41;46.56;102098.16;5068903;28;20036;-70
2023/09/26 10:50:15;;;;;;;3.78;2.42;;;;;;;23.43;46.55;102096.16;5076666;28;20048;-69
2023/09/26 10:52:46;;;;;;;7.05;2.60;;;;;;;23.44;46.41;102103.13;5074700;28;20043;-69
2023/09/26 10:55:19;;;;;;;2.95;2.45;;;;;;;23.44;46.28;102097.81;5072207;28;20029;-69
2023/09/26 10:57:45;;;;;;;3.45;2.30;;;;;;;23.44;46.35;102100.47;5076787;28;20042;-69
2023/09/26 11:00:12;;;;;;;2.90;2.25;;;;;;;23.45;46.32;102104.78;5076929;28;20036;-67
2023/09/26 11:02:38;;;;;;;3.10;2.22;;;;;;;23.43;46.29;102098.81;5068787;28;20035;-68
2023/09/26 11:05:14;;;;;;;4.85;2.55;;;;;;;23.43;46.32;102098.81;5078636;28;20040;-67
2023/09/26 11:07:42;;;;;;;4.97;2.63;;;;;;;23.45;46.46;102102.97;5077167;28;20569;-68
2023/09/26 11:10:16;;;;;;;3.67;2.40;;;;;;;23.48;46.38;102104.44;5077405;28;20123;-67
2023/09/26 11:12:43;;;;;;;2.78;2.13;;;;;;;23.43;46.27;102094.34;5075503;28;20091;-67
2023/09/26 11:15:09;;;;;;;3.30;2.45;;;;;;;23.45;46.53;102096.81;5075312;28;20050;-67
2023/09/26 11:17:36;;;;;;;3.47;2.53;;;;;;;23.47;46.52;102092.16;5077135;28;20059;-67
2023/09/26 11:20:06;;;;;;;5.80;2.58;;;;;;;23.48;46.38;102086.66;5073357;28;20057;-66
2023/09/26 11:22:46;;;;;;;4.57;2.45;;;;;;;23.48;46.11;102088.50;5070564;28;20040;-66